sensor_id;sensor_type;location;lat;lon;timestamp;pressure;altitude;pressure_sealevel;temperature;humidity
80678;BME280;70042;52.494;5.502;2023-11-21T00:00:55;101170.25;;;18.82;66.00
80678;BME280;70042;52.494;5.502;2023-11-21T00:03:20;101165.81;;;18.83;66.26
80678;BME280;70042;52.494;5.502;2023-11-21T00:05:48;101169.34;;;18.83;66.25
80678;BME280;70042;52.494;5.502;2023-11-21T00:08:14;101172.88;;;18.84;65.93
80678;BME280;70042;52.494;5.502;2023-11-21T00:10:39;101188.75;;;18.84;66.13
80678;BME280;70042;52.494;5.502;2023-11-21T00:13:05;101188.75;;;18.84;66.45
80678;BME280;70042;52.494;5.502;2023-11-21T00:15:32;101179.03;;;18.84;66.15
80678;BME280;70042;52.494;5.502;2023-11-21T00:17:58;101179.03;;;18.84;66.86
80678;BME280;70042;52.494;5.502;2023-11-21T00:20:23;101178.97;;;18.86;66.55
80678;BME280;70042;52.494;5.502;2023-11-21T00:22:49;101178.09;;;18.85;66.41
80678;BME280;70042;52.494;5.502;2023-11-21T00:25:14;101178.97;;;18.86;66.46
80678;BME280;70042;52.494;5.502;2023-11-21T00:27:42;101180.75;;;18.85;66.36
80678;BME280;70042;52.494;5.502;2023-11-21T00:30:08;101183.47;;;18.84;66.57
80678;BME280;70042;52.494;5.502;2023-11-21T00:32:37;101190.53;;;18.83;66.23
80678;BME280;70042;52.494;5.502;2023-11-21T00:35:03;101186.09;;;18.84;66.08
80678;BME280;70042;52.494;5.502;2023-11-21T00:37:28;101194.03;;;18.84;66.03
80678;BME280;70042;52.494;5.502;2023-11-21T00:39:54;101192.28;;;18.83;66.10
80678;BME280;70042;52.494;5.502;2023-11-21T00:42:21;101187.00;;;18.83;66.16
80678;BME280;70042;52.494;5.502;2023-11-21T00:44:47;101195.00;;;18.81;66.42
80678;BME280;70042;52.494;5.502;2023-11-21T00:47:13;101202.88;;;18.83;66.16
80678;BME280;70042;52.494;5.502;2023-11-21T00:49:38;101195.84;;;18.82;66.15
80678;BME280;70042;52.494;5.502;2023-11-21T00:52:04;101203.75;;;18.83;66.41
80678;BME280;70042;52.494;5.502;2023-11-21T00:54:30;101206.34;;;18.85;66.61
80678;BME280;70042;52.494;5.502;2023-11-21T00:56:56;101206.34;;;18.85;66.23
80678;BME280;70042;52.494;5.502;2023-11-21T00:59:23;101207.28;;;18.84;66.09
80678;BME280;70042;52.494;5.502;2023-11-21T01:01:49;101214.28;;;18.85;66.70
80678;BME280;70042;52.494;5.502;2023-11-21T01:04:15;101211.66;;;18.85;66.07
80678;BME280;70042;52.494;5.502;2023-11-21T01:06:40;101211.66;;;18.85;66.25
80678;BME280;70042;52.494;5.502;2023-11-21T01:09:06;101210.81;;;18.84;66.27
80678;BME280;70042;52.494;5.502;2023-11-21T01:11:34;101213.41;;;18.86;66.49
80678;BME280;70042;52.494;5.502;2023-11-21T01:14:03;101217.88;;;18.84;66.41
80678;BME280;70042;52.494;5.502;2023-11-21T01:16:29;101220.53;;;18.84;66.26
80678;BME280;70042;52.494;5.502;2023-11-21T01:18:55;101218.75;;;18.84;66.42
80678;BME280;70042;52.494;5.502;2023-11-21T01:21:22;101227.59;;;18.83;66.47
80678;BME280;70042;52.494;5.502;2023-11-21T01:23:48;101228.47;;;18.82;66.16
80678;BME280;70042;52.494;5.502;2023-11-21T01:26:13;101229.38;;;18.83;66.24
80678;BME280;70042;52.494;5.502;2023-11-21T01:28:39;101224.97;;;18.82;66.59
80678;BME280;70042;52.494;5.502;2023-11-21T01:31:04;101228.47;;;18.82;66.23
80678;BME280;70042;52.494;5.502;2023-11-21T01:33:31;101236.41;;;18.84;66.51
80678;BME280;70042;52.494;5.502;2023-11-21T01:35:56;101241.69;;;18.84;66.69
80678;BME280;70042;52.494;5.502;2023-11-21T01:38:22;101243.41;;;18.85;66.36
80678;BME280;70042;52.494;5.502;2023-11-21T01:40:47;101247.00;;;18.84;66.46
80678;BME280;70042;52.494;5.502;2023-11-21T01:43:13;101248.72;;;18.85;66.72
80678;BME280;70042;52.494;5.502;2023-11-21T01:45:39;101254.88;;;18.85;66.56
80678;BME280;70042;52.494;5.502;2023-11-21T01:48:04;101244.28;;;18.85;66.43
80678;BME280;70042;52.494;5.502;2023-11-21T01:50:32;101248.69;;;18.86;66.76
80678;BME280;70042;52.494;5.502;2023-11-21T01:52:59;101252.25;;;18.85;66.48
80678;BME280;70042;52.494;5.502;2023-11-21T01:55:27;101245.16;;;18.86;66.71
80678;BME280;70042;52.494;5.502;2023-11-21T01:57:53;101257.50;;;18.87;66.75
80678;BME280;70042;52.494;5.502;2023-11-21T02:00:19;101258.41;;;18.86;66.44
80678;BME280;70042;52.494;5.502;2023-11-21T02:02:45;101258.41;;;18.86;66.75
80678;BME280;70042;52.494;5.502;2023-11-21T02:05:12;101260.19;;;18.85;66.71
80678;BME280;70042;52.494;5.502;2023-11-21T02:07:41;101270.78;;;18.85;67.11
80678;BME280;70042;52.494;5.502;2023-11-21T02:10:10;101267.25;;;18.85;66.89
80678;BME280;70042;52.494;5.502;2023-11-21T02:12:40;101271.56;;;18.89;66.89
80678;BME280;70042;52.494;5.502;2023-11-21T02:15:06;101273.34;;;18.88;67.04
80678;BME280;70042;52.494;5.502;2023-11-21T02:17:38;101268.03;;;18.90;66.90
80678;BME280;70042;52.494;5.502;2023-11-21T02:20:03;101267.97;;;18.91;66.66
80678;BME280;70042;52.494;5.502;2023-11-21T02:22:33;101273.25;;;18.93;67.08
80678;BME280;70042;52.494;5.502;2023-11-21T02:25:03;101277.69;;;18.92;67.23
80678;BME280;70042;52.494;5.502;2023-11-21T02:27:28;101275.91;;;18.93;67.05
80678;BME280;70042;52.494;5.502;2023-11-21T02:29:54;101279.44;;;18.93;66.76
80678;BME280;70042;52.494;5.502;2023-11-21T02:32:19;101285.63;;;18.92;67.18
80678;BME280;70042;52.494;5.502;2023-11-21T02:34:53;101283.84;;;18.93;67.29
80678;BME280;70042;52.494;5.502;2023-11-21T02:37:21;101282.94;;;18.94;67.19
80678;BME280;70042;52.494;5.502;2023-11-21T02:39:46;101289.13;;;18.93;67.31
80678;BME280;70042;52.494;5.502;2023-11-21T02:42:12;101279.44;;;18.92;67.51
80678;BME280;70042;52.494;5.502;2023-11-21T02:44:37;101282.97;;;18.92;67.60
80678;BME280;70042;52.494;5.502;2023-11-21T02:47:03;101282.09;;;18.92;67.31
80678;BME280;70042;52.494;5.502;2023-11-21T02:49:29;101294.44;;;18.93;67.47
80678;BME280;70042;52.494;5.502;2023-11-21T02:51:54;101290.03;;;18.93;67.48
80678;BME280;70042;52.494;5.502;2023-11-21T02:54:20;101293.53;;;18.94;67.29
80678;BME280;70042;52.494;5.502;2023-11-21T02:56:47;101293.50;;;18.95;67.78
80678;BME280;70042;52.494;5.502;2023-11-21T02:59:15;101282.94;;;18.94;67.83
80678;BME280;70042;52.494;5.502;2023-11-21T03:01:41;101283.78;;;18.96;67.94
80678;BME280;70042;52.494;5.502;2023-11-21T03:04:06;101288.19;;;18.95;67.85
80678;BME280;70042;52.494;5.502;2023-11-21T03:06:32;101287.25;;;18.98;67.98
80678;BME280;70042;52.494;5.502;2023-11-21T03:08:57;101282.91;;;18.95;67.70
80678;BME280;70042;52.494;5.502;2023-11-21T03:11:22;101289.00;;;18.97;67.83
80678;BME280;70042;52.494;5.502;2023-11-21T03:13:48;101289.88;;;18.98;67.19
80678;BME280;70042;52.494;5.502;2023-11-21T03:16:15;101292.53;;;18.98;67.37
80678;BME280;70042;52.494;5.502;2023-11-21T03:18:40;101287.25;;;18.98;67.36
80678;BME280;70042;52.494;5.502;2023-11-21T03:21:06;101274.94;;;18.97;67.47
80678;BME280;70042;52.494;5.502;2023-11-21T03:23:35;101277.59;;;18.95;67.45
80678;BME280;70042;52.494;5.502;2023-11-21T03:26:01;101282.91;;;18.95;67.27
80678;BME280;70042;52.494;5.502;2023-11-21T03:28:27;101285.59;;;18.94;67.21
80678;BME280;70042;52.494;5.502;2023-11-21T03:30:53;101290.03;;;18.93;67.25
80678;BME280;70042;52.494;5.502;2023-11-21T03:33:19;101291.78;;;18.93;67.29
80678;BME280;70042;52.494;5.502;2023-11-21T03:35:44;101282.09;;;18.92;66.95
80678;BME280;70042;52.494;5.502;2023-11-21T03:38:10;101293.56;;;18.92;66.62
80678;BME280;70042;52.494;5.502;2023-11-21T03:40:36;101299.72;;;18.93;66.54
80678;BME280;70042;52.494;5.502;2023-11-21T03:43:01;101299.72;;;18.93;66.40
80678;BME280;70042;52.494;5.502;2023-11-21T03:45:27;101302.38;;;18.93;66.58
80678;BME280;70042;52.494;5.502;2023-11-21T03:47:52;101297.97;;;18.92;66.68
80678;BME280;70042;52.494;5.502;2023-11-21T03:50:18;101305.03;;;18.93;66.80
80678;BME280;70042;52.494;5.502;2023-11-21T03:52:43;101310.31;;;18.93;66.50
80678;BME280;70042;52.494;5.502;2023-11-21T03:55:09;101313.88;;;18.92;66.86
80678;BME280;70042;52.494;5.502;2023-11-21T03:57:35;101314.75;;;18.92;66.42
80678;BME280;70042;52.494;5.502;2023-11-21T04:00:01;101317.44;;;18.91;66.68
80678;BME280;70042;52.494;5.502;2023-11-21T04:02:26;101319.22;;;18.90;66.45
80678;BME280;70042;52.494;5.502;2023-11-21T04:04:54;101306.94;;;18.88;66.60
80678;BME280;70042;52.494;5.502;2023-11-21T04:07:21;101323.66;;;18.88;66.63
80678;BME280;70042;52.494;5.502;2023-11-21T04:09:47;101323.66;;;18.88;66.49
80678;BME280;70042;52.494;5.502;2023-11-21T04:12:12;101332.47;;;18.89;67.17
80678;BME280;70042;52.494;5.502;2023-11-21T04:14:38;101331.56;;;18.90;66.77
80678;BME280;70042;52.494;5.502;2023-11-21T04:17:03;101335.13;;;18.89;67.08
80678;BME280;70042;52.494;5.502;2023-11-21T04:19:29;101335.13;;;18.89;66.72
80678;BME280;70042;52.494;5.502;2023-11-21T04:21:55;101341.28;;;18.91;66.46
80678;BME280;70042;52.494;5.502;2023-11-21T04:24:20;101348.34;;;18.90;66.25
80678;BME280;70042;52.494;5.502;2023-11-21T04:26:45;101340.41;;;18.89;66.43
80678;BME280;70042;52.494;5.502;2023-11-21T04:29:11;101343.06;;;18.89;65.98
80678;BME280;70042;52.494;5.502;2023-11-21T04:31:37;101346.59;;;18.89;66.01
80678;BME280;70042;52.494;5.502;2023-11-21T04:34:03;101356.31;;;18.89;66.43
80678;BME280;70042;52.494;5.502;2023-11-21T04:36:29;101358.13;;;18.87;66.11
80678;BME280;70042;52.494;5.502;2023-11-21T04:38:56;101360.78;;;18.85;66.46
80678;BME280;70042;52.494;5.502;2023-11-21T04:41:22;101363.50;;;18.84;66.20
80678;BME280;70042;52.494;5.502;2023-11-21T04:43:47;101363.50;;;18.84;66.30
80678;BME280;70042;52.494;5.502;2023-11-21T04:46:13;101360.84;;;18.84;66.28
80678;BME280;70042;52.494;5.502;2023-11-21T04:48:38;101368.78;;;18.84;66.29
80678;BME280;70042;52.494;5.502;2023-11-21T04:51:04;101364.38;;;18.84;66.34
80678;BME280;70042;52.494;5.502;2023-11-21T04:53:30;101364.38;;;18.84;65.89
80678;BME280;70042;52.494;5.502;2023-11-21T04:55:55;101369.69;;;18.83;65.99
80678;BME280;70042;52.494;5.502;2023-11-21T04:58:20;101375.84;;;18.83;66.09
80678;BME280;70042;52.494;5.502;2023-11-21T05:00:46;101382.03;;;18.84;66.16
80678;BME280;70042;52.494;5.502;2023-11-21T05:03:11;101375.88;;;18.82;66.13
80678;BME280;70042;52.494;5.502;2023-11-21T05:05:37;101389.09;;;18.83;65.79
80678;BME280;70042;52.494;5.502;2023-11-21T05:08:03;101393.50;;;18.83;65.81
80678;BME280;70042;52.494;5.502;2023-11-21T05:10:28;101390.84;;;18.83;65.65
80678;BME280;70042;52.494;5.502;2023-11-21T05:12:55;101387.34;;;18.82;66.15
80678;BME280;70042;52.494;5.502;2023-11-21T05:15:21;101395.25;;;18.84;65.79
80678;BME280;70042;52.494;5.502;2023-11-21T05:17:46;101391.72;;;18.83;65.55
80678;BME280;70042;52.494;5.502;2023-11-21T05:20:15;101394.41;;;18.82;66.04
80678;BME280;70042;52.494;5.502;2023-11-21T05:22:45;101395.31;;;18.81;66.02
80678;BME280;70042;52.494;5.502;2023-11-21T05:25:11;101391.81;;;18.79;66.44
80678;BME280;70042;52.494;5.502;2023-11-21T05:27:36;101393.56;;;18.80;66.04
80678;BME280;70042;52.494;5.502;2023-11-21T05:30:03;101392.69;;;18.79;66.05
80678;BME280;70042;52.494;5.502;2023-11-21T05:32:32;101395.38;;;18.78;65.94
80678;BME280;70042;52.494;5.502;2023-11-21T05:34:58;101396.28;;;18.78;65.77
80678;BME280;70042;52.494;5.502;2023-11-21T05:37:24;101406.84;;;18.78;65.99
80678;BME280;70042;52.494;5.502;2023-11-21T05:39:52;101413.94;;;18.76;66.21
80678;BME280;70042;52.494;5.502;2023-11-21T05:42:18;101424.53;;;18.76;66.13
80678;BME280;70042;52.494;5.502;2023-11-21T05:44:43;101423.66;;;18.76;65.70
80678;BME280;70042;52.494;5.502;2023-11-21T05:47:09;101428.94;;;18.76;65.44
80678;BME280;70042;52.494;5.502;2023-11-21T05:49:35;101435.09;;;18.78;65.43
80678;BME280;70042;52.494;5.502;2023-11-21T05:52:00;101426.22;;;18.79;65.64
80678;BME280;70042;52.494;5.502;2023-11-21T05:54:26;101433.28;;;18.80;66.06
80678;BME280;70042;52.494;5.502;2023-11-21T05:56:51;101444.69;;;18.82;65.60
80678;BME280;70042;52.494;5.502;2023-11-21T05:59:17;101446.47;;;18.83;65.36
80678;BME280;70042;52.494;5.502;2023-11-21T06:01:42;101447.34;;;18.83;64.93
80678;BME280;70042;52.494;5.502;2023-11-21T06:04:08;101453.50;;;18.84;65.69
80678;BME280;70042;52.494;5.502;2023-11-21T06:06:35;101460.56;;;18.83;65.63
80678;BME280;70042;52.494;5.502;2023-11-21T06:09:00;101456.16;;;18.84;65.48
80678;BME280;70042;52.494;5.502;2023-11-21T06:11:26;101466.69;;;18.85;65.35
80678;BME280;70042;52.494;5.502;2023-11-21T06:13:51;101468.47;;;18.85;65.37
80678;BME280;70042;52.494;5.502;2023-11-21T06:16:18;101471.13;;;18.85;65.22
80678;BME280;70042;52.494;5.502;2023-11-21T06:18:47;101479.91;;;18.87;65.75
80678;BME280;70042;52.494;5.502;2023-11-21T06:21:12;101480.84;;;18.84;65.10
80678;BME280;70042;52.494;5.502;2023-11-21T06:23:40;101472.91;;;18.84;65.78
80678;BME280;70042;52.494;5.502;2023-11-21T06:26:06;101479.06;;;18.85;65.52
80678;BME280;70042;52.494;5.502;2023-11-21T06:28:32;101487.94;;;18.82;65.50
80678;BME280;70042;52.494;5.502;2023-11-21T06:30:57;101492.34;;;18.82;66.02
80678;BME280;70042;52.494;5.502;2023-11-21T06:33:24;101498.50;;;18.84;65.44
80678;BME280;70042;52.494;5.502;2023-11-21T06:35:52;101497.63;;;18.83;65.50
80678;BME280;70042;52.494;5.502;2023-11-21T06:38:18;101506.47;;;18.84;65.51
80678;BME280;70042;52.494;5.502;2023-11-21T06:40:43;101515.22;;;18.86;65.91
80678;BME280;70042;52.494;5.502;2023-11-21T06:43:10;101517.88;;;18.86;65.44
80678;BME280;70042;52.494;5.502;2023-11-21T06:45:36;101520.53;;;18.86;65.80
80678;BME280;70042;52.494;5.502;2023-11-21T06:48:01;101517.88;;;18.86;66.12
80678;BME280;70042;52.494;5.502;2023-11-21T06:50:27;101523.13;;;18.89;65.46
80678;BME280;70042;52.494;5.502;2023-11-21T06:52:52;101522.28;;;18.87;66.00
80678;BME280;70042;52.494;5.502;2023-11-21T06:55:18;101526.69;;;18.88;65.59
80678;BME280;70042;52.494;5.502;2023-11-21T06:57:44;101531.06;;;18.89;65.49
80678;BME280;70042;52.494;5.502;2023-11-21T07:00:10;101542.56;;;18.88;65.40
80678;BME280;70042;52.494;5.502;2023-11-21T07:02:36;101547.81;;;18.89;65.51
80678;BME280;70042;52.494;5.502;2023-11-21T07:05:02;101557.53;;;18.89;65.75
80678;BME280;70042;52.494;5.502;2023-11-21T07:07:28;101562.84;;;18.89;65.24
80678;BME280;70042;52.494;5.502;2023-11-21T07:09:53;101570.78;;;18.89;65.48
80678;BME280;70042;52.494;5.502;2023-11-21T07:12:19;101577.00;;;18.88;65.31
80678;BME280;70042;52.494;5.502;2023-11-21T07:14:45;101582.28;;;18.88;65.51
80678;BME280;70042;52.494;5.502;2023-11-21T07:17:11;101590.25;;;18.86;65.42
80678;BME280;70042;52.494;5.502;2023-11-21T07:19:39;101592.91;;;18.86;65.59
80678;BME280;70042;52.494;5.502;2023-11-21T07:22:06;101591.13;;;18.85;65.56
80678;BME280;70042;52.494;5.502;2023-11-21T07:24:32;101598.19;;;18.85;65.54
80678;BME280;70042;52.494;5.502;2023-11-21T07:26:58;101598.19;;;18.85;65.74
80678;BME280;70042;52.494;5.502;2023-11-21T07:29:24;101592.91;;;18.85;65.47
80678;BME280;70042;52.494;5.502;2023-11-21T07:31:54;101607.94;;;18.84;65.90
80678;BME280;70042;52.494;5.502;2023-11-21T07:34:20;101611.44;;;18.86;65.67
80678;BME280;70042;52.494;5.502;2023-11-21T07:36:46;101608.78;;;18.88;65.63
80678;BME280;70042;52.494;5.502;2023-11-21T07:39:12;101622.84;;;18.88;65.65
80678;BME280;70042;52.494;5.502;2023-11-21T07:41:38;101634.38;;;18.87;65.36
80678;BME280;70042;52.494;5.502;2023-11-21T07:44:10;101630.78;;;18.90;65.70
80678;BME280;70042;52.494;5.502;2023-11-21T07:46:35;101637.84;;;18.89;65.46
80678;BME280;70042;52.494;5.502;2023-11-21T07:49:01;101644.03;;;18.90;65.73
80678;BME280;70042;52.494;5.502;2023-11-21T07:51:26;101650.16;;;18.92;65.72
80678;BME280;70042;52.494;5.502;2023-11-21T07:53:51;101655.47;;;18.92;65.74
80678;BME280;70042;52.494;5.502;2023-11-21T07:56:17;101664.28;;;18.92;65.73
80678;BME280;70042;52.494;5.502;2023-11-21T07:58:43;101665.16;;;18.93;65.47
80678;BME280;70042;52.494;5.502;2023-11-21T08:01:09;101668.66;;;18.95;65.44
80678;BME280;70042;52.494;5.502;2023-11-21T08:03:35;101669.50;;;18.97;65.55
80678;BME280;70042;52.494;5.502;2023-11-21T08:06:00;101670.34;;;18.97;65.67
80678;BME280;70042;52.494;5.502;2023-11-21T08:08:28;101673.06;;;18.96;65.43
80678;BME280;70042;52.494;5.502;2023-11-21T08:10:54;101673.94;;;18.95;65.54
80678;BME280;70042;52.494;5.502;2023-11-21T08:13:23;101688.09;;;18.94;65.29
80678;BME280;70042;52.494;5.502;2023-11-21T08:15:48;101691.59;;;18.96;65.46
80678;BME280;70042;52.494;5.502;2023-11-21T08:18:14;101700.41;;;18.96;65.03
80678;BME280;70042;52.494;5.502;2023-11-21T08:20:40;101719.84;;;18.97;65.56
80678;BME280;70042;52.494;5.502;2023-11-21T08:23:07;101722.44;;;18.98;65.51
80678;BME280;70042;52.494;5.502;2023-11-21T08:25:33;101726.84;;;18.98;65.36
80678;BME280;70042;52.494;5.502;2023-11-21T08:28:00;101728.63;;;18.99;65.66
80678;BME280;70042;52.494;5.502;2023-11-21T08:30:25;101730.38;;;19.00;65.33
80678;BME280;70042;52.494;5.502;2023-11-21T08:32:54;101734.78;;;18.98;65.28
80678;BME280;70042;52.494;5.502;2023-11-21T08:35:23;101736.56;;;18.97;65.29
80678;BME280;70042;52.494;5.502;2023-11-21T08:37:51;101745.38;;;18.98;65.30
80678;BME280;70042;52.494;5.502;2023-11-21T08:40:16;101753.34;;;18.98;65.57
80678;BME280;70042;52.494;5.502;2023-11-21T08:42:42;101756.91;;;18.97;65.20
80678;BME280;70042;52.494;5.502;2023-11-21T08:45:08;101765.75;;;18.96;65.56
80678;BME280;70042;52.494;5.502;2023-11-21T08:47:34;101771.03;;;18.96;65.43
80678;BME280;70042;52.494;5.502;2023-11-21T08:50:00;101776.34;;;18.96;65.71
80678;BME280;70042;52.494;5.502;2023-11-21T08:52:25;101775.50;;;18.94;65.24
80678;BME280;70042;52.494;5.502;2023-11-21T08:54:51;101775.50;;;18.94;65.46
80678;BME280;70042;52.494;5.502;2023-11-21T08:57:25;101775.50;;;18.92;65.33
80678;BME280;70042;52.494;5.502;2023-11-21T08:59:50;101788.75;;;18.92;65.42
80678;BME280;70042;52.494;5.502;2023-11-21T09:02:25;101794.03;;;18.94;65.35
80678;BME280;70042;52.494;5.502;2023-11-21T09:04:51;101780.81;;;18.92;65.26
80678;BME280;70042;52.494;5.502;2023-11-21T09:07:20;101793.16;;;18.93;65.61
80678;BME280;70042;52.494;5.502;2023-11-21T09:09:49;101800.19;;;18.94;65.66
80678;BME280;70042;52.494;5.502;2023-11-21T09:12:15;101801.97;;;18.94;65.38
80678;BME280;70042;52.494;5.502;2023-11-21T09:14:42;101806.34;;;18.95;65.32
80678;BME280;70042;52.494;5.502;2023-11-21T09:17:08;101813.41;;;18.96;65.13
80678;BME280;70042;52.494;5.502;2023-11-21T09:19:37;101809.88;;;18.95;65.23
80678;BME280;70042;52.494;5.502;2023-11-21T09:22:02;101814.28;;;18.96;65.66
80678;BME280;70042;52.494;5.502;2023-11-21T09:24:28;101818.72;;;18.96;65.10
80678;BME280;70042;52.494;5.502;2023-11-21T09:26:53;101825.75;;;18.97;65.45
80678;BME280;70042;52.494;5.502;2023-11-21T09:29:19;101825.78;;;18.95;65.39
80678;BME280;70042;52.494;5.502;2023-11-21T09:31:45;101832.84;;;18.96;65.36
80678;BME280;70042;52.494;5.502;2023-11-21T09:34:10;101840.78;;;18.96;65.28
80678;BME280;70042;52.494;5.502;2023-11-21T09:36:38;101837.25;;;18.96;65.45
80678;BME280;70042;52.494;5.502;2023-11-21T09:39:04;101846.06;;;18.96;65.54
80678;BME280;70042;52.494;5.502;2023-11-21T09:41:36;101845.19;;;18.96;65.66
80678;BME280;70042;52.494;5.502;2023-11-21T09:44:08;101856.63;;;18.98;65.73
80678;BME280;70042;52.494;5.502;2023-11-21T09:46:37;101854.84;;;18.98;65.11
80678;BME280;70042;52.494;5.502;2023-11-21T09:49:05;101872.50;;;18.99;65.62
80678;BME280;70042;52.494;5.502;2023-11-21T09:51:39;101878.69;;;19.00;65.24
80678;BME280;70042;52.494;5.502;2023-11-21T09:54:08;101876.91;;;19.00;65.73
80678;BME280;70042;52.494;5.502;2023-11-21T09:56:36;101878.69;;;19.00;65.37
80678;BME280;70042;52.494;5.502;2023-11-21T09:59:03;101889.28;;;19.00;65.41
80678;BME280;70042;52.494;5.502;2023-11-21T10:01:32;101883.06;;;19.01;65.17
80678;BME280;70042;52.494;5.502;2023-11-21T10:03:58;101891.00;;;19.01;65.46
80678;BME280;70042;52.494;5.502;2023-11-21T10:06:26;101889.28;;;18.98;65.72
80678;BME280;70042;52.494;5.502;2023-11-21T10:08:53;101898.13;;;18.97;65.56
80678;BME280;70042;52.494;5.502;2023-11-21T10:11:23;101909.59;;;18.98;65.57
80678;BME280;70042;52.494;5.502;2023-11-21T10:13:54;101910.50;;;18.97;65.73
80678;BME280;70042;52.494;5.502;2023-11-21T10:16:20;101914.06;;;18.96;65.47
80678;BME280;70042;52.494;5.502;2023-11-21T10:18:51;101914.94;;;18.96;65.75
80678;BME280;70042;52.494;5.502;2023-11-21T10:21:18;101927.28;;;18.96;65.65
80678;BME280;70042;52.494;5.502;2023-11-21T10:23:44;101927.28;;;18.94;65.66
80678;BME280;70042;52.494;5.502;2023-11-21T10:26:11;101931.75;;;18.94;65.94
80678;BME280;70042;52.494;5.502;2023-11-21T10:28:55;101941.41;;;18.96;66.10
80678;BME280;70042;52.494;5.502;2023-11-21T10:31:21;101944.06;;;18.95;66.46
80678;BME280;70042;52.494;5.502;2023-11-21T10:33:49;101947.59;;;18.97;66.40
80678;BME280;70042;52.494;5.502;2023-11-21T10:36:27;101947.59;;;18.97;66.24
80678;BME280;70042;52.494;5.502;2023-11-21T10:38:53;101953.72;;;18.99;66.29
80678;BME280;70042;52.494;5.502;2023-11-21T10:41:22;101956.38;;;19.00;66.01
80678;BME280;70042;52.494;5.502;2023-11-21T10:43:47;101960.78;;;19.00;65.83
80678;BME280;70042;52.494;5.502;2023-11-21T10:46:14;101958.16;;;19.00;65.65
80678;BME280;70042;52.494;5.502;2023-11-21T10:48:43;101952.84;;;19.00;65.95
80678;BME280;70042;52.494;5.502;2023-11-21T10:51:09;101950.19;;;19.00;65.61
80678;BME280;70042;52.494;5.502;2023-11-21T10:53:39;101956.38;;;19.00;65.81
80678;BME280;70042;52.494;5.502;2023-11-21T10:56:06;101960.75;;;19.01;66.06
80678;BME280;70042;52.494;5.502;2023-11-21T10:58:35;101966.94;;;19.02;65.79
80678;BME280;70042;52.494;5.502;2023-11-21T11:01:02;101965.16;;;19.01;65.65
80678;BME280;70042;52.494;5.502;2023-11-21T11:03:32;101966.06;;;19.03;65.90
80678;BME280;70042;52.494;5.502;2023-11-21T11:05:59;101957.22;;;19.02;65.68
80678;BME280;70042;52.494;5.502;2023-11-21T11:08:26;101958.09;;;19.03;65.73
80678;BME280;70042;52.494;5.502;2023-11-21T11:10:52;101964.28;;;19.02;65.91
80678;BME280;70042;52.494;5.502;2023-11-21T11:13:18;101971.34;;;19.03;66.16
80678;BME280;70042;52.494;5.502;2023-11-21T11:15:47;101974.00;;;19.03;66.23
80678;BME280;70042;52.494;5.502;2023-11-21T11:18:13;101983.72;;;19.02;65.89
80678;BME280;70042;52.494;5.502;2023-11-21T11:20:40;101988.97;;;19.04;65.80
80678;BME280;70042;52.494;5.502;2023-11-21T11:26:17;101991.63;;;19.04;66.08
80678;BME280;70042;52.494;5.502;2023-11-21T11:29:11;101997.81;;;19.04;66.17
80678;BME280;70042;52.494;5.502;2023-11-21T11:34:30;102003.97;;;19.05;65.88
80678;BME280;70042;52.494;5.502;2023-11-21T11:37:07;102007.50;;;19.04;66.13
80678;BME280;70042;52.494;5.502;2023-11-21T11:39:39;102007.50;;;19.04;66.00
80678;BME280;70042;52.494;5.502;2023-11-21T11:42:13;102011.09;;;19.03;65.93
80678;BME280;70042;52.494;5.502;2023-11-21T11:47:31;102011.97;;;19.02;66.01
80678;BME280;70042;52.494;5.502;2023-11-21T11:50:08;102011.97;;;19.02;66.17
80678;BME280;70042;52.494;5.502;2023-11-21T11:52:46;102021.72;;;19.00;65.75
80678;BME280;70042;52.494;5.502;2023-11-21T11:55:14;102020.84;;;18.99;66.14
80678;BME280;70042;52.494;5.502;2023-11-21T11:57:42;102030.53;;;18.99;66.02
80678;BME280;70042;52.494;5.502;2023-11-21T12:00:17;102029.66;;;18.98;65.93
80678;BME280;70042;52.494;5.502;2023-11-21T12:03:08;102039.38;;;18.98;65.83
80678;BME280;70042;52.494;5.502;2023-11-21T12:05:34;102039.38;;;18.99;66.06
80678;BME280;70042;52.494;5.502;2023-11-21T12:08:05;102036.72;;;18.98;65.72
80678;BME280;70042;52.494;5.502;2023-11-21T12:10:33;102038.50;;;18.99;65.68
80678;BME280;70042;52.494;5.502;2023-11-21T12:13:09;102045.56;;;19.00;65.73
80678;BME280;70042;52.494;5.502;2023-11-21T12:15:37;102036.72;;;18.99;65.98
80678;BME280;70042;52.494;5.502;2023-11-21T12:18:04;102030.59;;;18.96;65.25
80678;BME280;70042;52.494;5.502;2023-11-21T12:20:30;102033.22;;;18.94;65.34
80678;BME280;70042;52.494;5.502;2023-11-21T12:22:58;102032.38;;;18.94;65.63
80678;BME280;70042;52.494;5.502;2023-11-21T12:25:28;102042.06;;;18.95;65.37
80678;BME280;70042;52.494;5.502;2023-11-21T12:27:55;102038.53;;;18.94;65.44
80678;BME280;70042;52.494;5.502;2023-11-21T12:30:23;102038.50;;;18.97;65.10
80678;BME280;70042;52.494;5.502;2023-11-21T12:32:53;102036.75;;;18.96;65.01
80678;BME280;70042;52.494;5.502;2023-11-21T12:35:20;102049.09;;;18.97;64.75
80678;BME280;70042;52.494;5.502;2023-11-21T12:37:46;102051.72;;;18.97;65.11
80678;BME280;70042;52.494;5.502;2023-11-21T12:40:13;102053.50;;;18.98;64.92
80678;BME280;70042;52.494;5.502;2023-11-21T12:42:47;102058.78;;;18.98;64.67
80678;BME280;70042;52.494;5.502;2023-11-21T12:47:47;102070.28;;;19.00;64.61
80678;BME280;70042;52.494;5.502;2023-11-21T12:50:37;102079.06;;;19.02;64.49
80678;BME280;70042;52.494;5.502;2023-11-21T12:53:07;102087.00;;;19.01;64.46
80678;BME280;70042;52.494;5.502;2023-11-21T12:55:34;102097.59;;;19.01;64.56
80678;BME280;70042;52.494;5.502;2023-11-21T12:58:04;102105.56;;;19.01;64.52
80678;BME280;70042;52.494;5.502;2023-11-21T13:00:42;102114.34;;;19.04;64.37